תחנות METAR סמוכות

 

LLBG - Ben-Gurion(Civ/M, Israel
Distance from station: 'מ 83km
עודכן: 26/10/2021 21:50
בהיר
בהיר
 רוח מ משתנה
רוח: משתנה 4 km/h
טמפרטורה: 21°C
נקודת הטל: 15°C
לחות: 69%
ברומטר: 1016 hPa
סיכום: בהיר
ראות: greater than 10 km
2021/10/26 18:50 LLBG 261850Z VRB02KT CAVOK 21/15 Q1016 NOSIG
LLSD - Sde Dov Airport, Israel
Distance from station: 'מ 75km
עודכן: 30/06/2019 23:50
לא מעודכן
מעונן חלקית
מעונן חלקית
 רוח מ משתנה
רוח: משתנה 6 km/h
טמפרטורה: 27°C
עומס חום: 30°C
נקודת הטל: 23°C
לחות: 79%
ברומטר: 1007 hPa
עננים: מעונן חלקית
ראות: 10 km
Cloud details: מעונן חלקית 518 m
2019/06/30 20:50 LLSD 302050Z VRB03KT 9999 SCT017 27/23 Q1007
 
LLHA - Haifa (isr-Afb), Israel
Distance from station: 'צמ 129km
עודכן: 26/10/2021 19:50
לא מעודכן
Few Clouds
Few Clouds
 רוח מ 'צ
רוח: 'צ 17 km/h
טמפרטורה: 24°C
נקודת הטל: 15°C
לחות: 57%
ברומטר: 1015 hPa
עננים: Few Clouds
ראות: 10 km
Cloud details: Few Clouds 1036 m
2021/10/26 16:50 LLHA 261650Z 35009KT 9999 FEW034 24/15 Q1015
LLIB - Ben Ya Akov, Israel
Distance from station: 'צמ 183km
עודכן: 26/10/2021 17:50
לא מעודכן
בהיר
בהיר
 רוח מ 'צמ
רוח: 'צמ 15 km/h
טמפרטורה: 22°C
נקודת הטל: 13°C
לחות: 57%
ברומטר: 1015 hPa
סיכום: בהיר
ראות: greater than 10 km
2021/10/26 14:50 LLIB 261450Z AUTO 31008KT CAVOK 22/13 Q1015
 
LLOV - Ovda (isr-Afb/Ci, Israel
Distance from station: 'דדמ 246km
עודכן: 31/03/2019 22:50
לא מעודכן
בהיר
בהיר
 רוח מ 'מדמ
רוח: 'מדמ 13 km/h
טמפרטורה: 12°C
נקודת הטל: 0°C
לחות: 44%
ברומטר: 1012 hPa
סיכום: בהיר
ראות: greater than 10 km
2019/03/31 19:50 LLOV 311950Z 24007KT CAVOK 12/00 Q1012
LLET - Elat/J. Hozman(A, Israel
Distance from station: 'דדמ 287km
עודכן: 18/03/2019 17:50
לא מעודכן
בהיר
בהיר
 רוח מ 'צצמ
רוח: 'צצמ 30 km/h
טמפרטורה: 24°C
נקודת הטל: -1°C
לחות: 19%
ברומטר: 1016 hPa
סיכום: בהיר
ראות: greater than 10 km
2019/03/18 15:50 LLET 181550Z 02016KT CAVOK 24/M01 Q1016
 
LCLK - Larnaca/Larnax A, Cyprus
Distance from station: 'צ 321km
עודכן: 26/10/2021 22:00
Few Clouds
Few Clouds
 רוח מ משתנה
רוח: משתנה 4 km/h
טמפרטורה: 21°C
נקודת הטל: 14°C
לחות: 64%
ברומטר: 1017 hPa
עננים: Few Clouds
ראות: 10 km
Cloud details: Few Clouds 1067 m
2021/10/26 19:00 LCLK 261900Z VRB02KT 9999 FEW035 21/14 Q1017 NOSIG